sensor_id;sensor_type;location;lat;lon;timestamp;temperature;humidity
22073;DHT22;11202;50.916;4.698;2022-09-12T00:00:46;13.90;99.90
22073;DHT22;11202;50.916;4.698;2022-09-12T00:03:15;13.80;99.90
22073;DHT22;11202;50.916;4.698;2022-09-12T00:05:45;14.00;99.90
22073;DHT22;11202;50.916;4.698;2022-09-12T00:08:11;14.10;99.90
22073;DHT22;11202;50.916;4.698;2022-09-12T00:10:39;14.10;99.90
22073;DHT22;11202;50.916;4.698;2022-09-12T00:13:06;14.10;99.90
22073;DHT22;11202;50.916;4.698;2022-09-12T00:15:37;13.90;99.90
22073;DHT22;11202;50.916;4.698;2022-09-12T00:18:03;13.90;99.90
22073;DHT22;11202;50.916;4.698;2022-09-12T00:20:28;13.80;99.90
22073;DHT22;11202;50.916;4.698;2022-09-12T00:23:01;13.80;99.90
22073;DHT22;11202;50.916;4.698;2022-09-12T00:25:27;13.90;99.90
22073;DHT22;11202;50.916;4.698;2022-09-12T00:27:55;14.00;99.90
22073;DHT22;11202;50.916;4.698;2022-09-12T00:30:20;14.00;99.90
22073;DHT22;11202;50.916;4.698;2022-09-12T00:32:46;14.00;99.90
22073;DHT22;11202;50.916;4.698;2022-09-12T00:35:15;14.10;99.90
22073;DHT22;11202;50.916;4.698;2022-09-12T00:37:41;14.30;99.90
22073;DHT22;11202;50.916;4.698;2022-09-12T00:40:07;14.30;99.90
22073;DHT22;11202;50.916;4.698;2022-09-12T00:42:35;14.30;99.90
22073;DHT22;11202;50.916;4.698;2022-09-12T00:45:03;14.40;99.90
22073;DHT22;11202;50.916;4.698;2022-09-12T00:47:30;14.30;99.90
22073;DHT22;11202;50.916;4.698;2022-09-12T00:50:07;14.20;99.90
22073;DHT22;11202;50.916;4.698;2022-09-12T00:52:41;13.90;99.90
22073;DHT22;11202;50.916;4.698;2022-09-12T00:55:26;13.80;99.90
22073;DHT22;11202;50.916;4.698;2022-09-12T00:57:57;13.80;99.90
22073;DHT22;11202;50.916;4.698;2022-09-12T01:00:27;13.90;99.90
22073;DHT22;11202;50.916;4.698;2022-09-12T01:03:01;14.10;99.90
22073;DHT22;11202;50.916;4.698;2022-09-12T01:05:34;14.50;99.90
22073;DHT22;11202;50.916;4.698;2022-09-12T01:08:03;14.70;99.90
22073;DHT22;11202;50.916;4.698;2022-09-12T01:10:30;14.90;99.90
22073;DHT22;11202;50.916;4.698;2022-09-12T01:12:56;15.00;99.90
22073;DHT22;11202;50.916;4.698;2022-09-12T01:15:25;15.10;99.90
22073;DHT22;11202;50.916;4.698;2022-09-12T01:34:24;14.10;99.90
22073;DHT22;11202;50.916;4.698;2022-09-12T01:37:11;14.00;99.90
22073;DHT22;11202;50.916;4.698;2022-09-12T01:47:25;14.30;99.90
22073;DHT22;11202;50.916;4.698;2022-09-12T01:50:02;14.20;99.90
22073;DHT22;11202;50.916;4.698;2022-09-12T01:55:09;14.60;99.90
22073;DHT22;11202;50.916;4.698;2022-09-12T01:57:55;14.80;99.90
22073;DHT22;11202;50.916;4.698;2022-09-12T02:00:25;14.80;99.90
22073;DHT22;11202;50.916;4.698;2022-09-12T02:03:12;14.50;99.90
22073;DHT22;11202;50.916;4.698;2022-09-12T02:05:44;14.30;99.90
22073;DHT22;11202;50.916;4.698;2022-09-12T02:08:18;14.00;99.90
22073;DHT22;11202;50.916;4.698;2022-09-12T02:11:05;13.90;99.90
22073;DHT22;11202;50.916;4.698;2022-09-12T02:13:47;13.80;99.90
22073;DHT22;11202;50.916;4.698;2022-09-12T02:16:21;13.80;99.90
22073;DHT22;11202;50.916;4.698;2022-09-12T02:18:52;13.60;99.90
22073;DHT22;11202;50.916;4.698;2022-09-12T02:21:21;13.60;99.90
22073;DHT22;11202;50.916;4.698;2022-09-12T02:23:54;13.40;99.90
22073;DHT22;11202;50.916;4.698;2022-09-12T02:26:30;13.30;99.90
22073;DHT22;11202;50.916;4.698;2022-09-12T02:28:57;13.20;99.90
22073;DHT22;11202;50.916;4.698;2022-09-12T02:31:32;13.30;99.90
22073;DHT22;11202;50.916;4.698;2022-09-12T02:39:56;13.50;99.90
22073;DHT22;11202;50.916;4.698;2022-09-12T02:42:25;13.50;99.90
22073;DHT22;11202;50.916;4.698;2022-09-12T02:44:52;13.70;99.90
22073;DHT22;11202;50.916;4.698;2022-09-12T02:47:35;13.90;99.90
22073;DHT22;11202;50.916;4.698;2022-09-12T02:50:03;14.30;99.90
22073;DHT22;11202;50.916;4.698;2022-09-12T02:52:30;14.50;99.90
22073;DHT22;11202;50.916;4.698;2022-09-12T02:54:57;14.70;99.90
22073;DHT22;11202;50.916;4.698;2022-09-12T02:57:23;14.70;99.90
22073;DHT22;11202;50.916;4.698;2022-09-12T02:59:51;14.50;99.90
22073;DHT22;11202;50.916;4.698;2022-09-12T03:05:11;14.30;99.90
22073;DHT22;11202;50.916;4.698;2022-09-12T03:10:32;14.30;99.90
22073;DHT22;11202;50.916;4.698;2022-09-12T03:19:01;14.10;99.90
22073;DHT22;11202;50.916;4.698;2022-09-12T03:24:08;14.20;99.90
22073;DHT22;11202;50.916;4.698;2022-09-12T03:29:23;13.90;99.90
22073;DHT22;11202;50.916;4.698;2022-09-12T03:31:55;13.70;99.90
22073;DHT22;11202;50.916;4.698;2022-09-12T03:34:25;13.60;99.90
22073;DHT22;11202;50.916;4.698;2022-09-12T03:36:51;13.60;99.90
22073;DHT22;11202;50.916;4.698;2022-09-12T03:39:20;13.50;99.90
22073;DHT22;11202;50.916;4.698;2022-09-12T03:41:46;13.40;99.90
22073;DHT22;11202;50.916;4.698;2022-09-12T03:44:12;13.40;99.90
22073;DHT22;11202;50.916;4.698;2022-09-12T03:46:39;13.50;99.90
22073;DHT22;11202;50.916;4.698;2022-09-12T03:49:05;13.50;99.90
22073;DHT22;11202;50.916;4.698;2022-09-12T03:51:33;13.50;99.90
22073;DHT22;11202;50.916;4.698;2022-09-12T03:53:59;13.50;99.90
22073;DHT22;11202;50.916;4.698;2022-09-12T03:56:25;13.60;99.90
22073;DHT22;11202;50.916;4.698;2022-09-12T03:58:51;13.70;99.90
22073;DHT22;11202;50.916;4.698;2022-09-12T04:01:18;13.90;99.90
22073;DHT22;11202;50.916;4.698;2022-09-12T04:03:47;13.90;99.90
22073;DHT22;11202;50.916;4.698;2022-09-12T04:06:16;13.70;99.90
22073;DHT22;11202;50.916;4.698;2022-09-12T04:08:42;13.70;99.90
22073;DHT22;11202;50.916;4.698;2022-09-12T04:11:13;13.60;99.90
22073;DHT22;11202;50.916;4.698;2022-09-12T04:13:41;13.40;99.90
22073;DHT22;11202;50.916;4.698;2022-09-12T04:16:08;13.30;99.90
22073;DHT22;11202;50.916;4.698;2022-09-12T04:18:35;13.30;99.90
22073;DHT22;11202;50.916;4.698;2022-09-12T04:21:05;13.20;99.90
22073;DHT22;11202;50.916;4.698;2022-09-12T04:23:31;13.10;99.90
22073;DHT22;11202;50.916;4.698;2022-09-12T04:25:59;13.00;99.90
22073;DHT22;11202;50.916;4.698;2022-09-12T04:28:26;13.00;99.90
22073;DHT22;11202;50.916;4.698;2022-09-12T04:30:53;13.00;99.90
22073;DHT22;11202;50.916;4.698;2022-09-12T04:33:19;12.90;99.90
22073;DHT22;11202;50.916;4.698;2022-09-12T04:35:46;12.90;99.90
22073;DHT22;11202;50.916;4.698;2022-09-12T04:38:12;13.00;99.90
22073;DHT22;11202;50.916;4.698;2022-09-12T04:40:38;13.10;99.90
22073;DHT22;11202;50.916;4.698;2022-09-12T04:43:08;13.40;99.90
22073;DHT22;11202;50.916;4.698;2022-09-12T04:45:34;13.40;99.90
22073;DHT22;11202;50.916;4.698;2022-09-12T04:48:00;13.50;99.90
22073;DHT22;11202;50.916;4.698;2022-09-12T04:50:26;13.50;99.90
22073;DHT22;11202;50.916;4.698;2022-09-12T04:52:55;13.60;99.90
22073;DHT22;11202;50.916;4.698;2022-09-12T04:55:25;13.60;99.90
22073;DHT22;11202;50.916;4.698;2022-09-12T04:57:52;13.70;99.90
22073;DHT22;11202;50.916;4.698;2022-09-12T05:00:20;13.80;99.90
22073;DHT22;11202;50.916;4.698;2022-09-12T05:02:46;13.80;99.90
22073;DHT22;11202;50.916;4.698;2022-09-12T05:05:12;13.80;99.90
22073;DHT22;11202;50.916;4.698;2022-09-12T05:07:43;13.70;99.90
22073;DHT22;11202;50.916;4.698;2022-09-12T05:10:09;13.80;99.90
22073;DHT22;11202;50.916;4.698;2022-09-12T05:12:37;13.80;99.90
22073;DHT22;11202;50.916;4.698;2022-09-12T05:15:03;13.80;99.90
22073;DHT22;11202;50.916;4.698;2022-09-12T05:17:29;13.90;99.90
22073;DHT22;11202;50.916;4.698;2022-09-12T05:19:54;13.90;99.90
22073;DHT22;11202;50.916;4.698;2022-09-12T05:22:23;13.80;99.90
22073;DHT22;11202;50.916;4.698;2022-09-12T05:24:49;13.80;99.90
22073;DHT22;11202;50.916;4.698;2022-09-12T05:27:15;13.90;99.90
22073;DHT22;11202;50.916;4.698;2022-09-12T05:29:40;14.00;99.90
22073;DHT22;11202;50.916;4.698;2022-09-12T05:32:09;13.90;99.90
22073;DHT22;11202;50.916;4.698;2022-09-12T05:34:37;14.10;99.90
22073;DHT22;11202;50.916;4.698;2022-09-12T05:37:03;14.00;99.90
22073;DHT22;11202;50.916;4.698;2022-09-12T05:39:28;14.10;99.90
22073;DHT22;11202;50.916;4.698;2022-09-12T05:41:54;14.10;99.90
22073;DHT22;11202;50.916;4.698;2022-09-12T05:44:20;14.20;99.90
22073;DHT22;11202;50.916;4.698;2022-09-12T05:46:46;14.30;99.90
22073;DHT22;11202;50.916;4.698;2022-09-12T05:49:14;14.40;99.90
22073;DHT22;11202;50.916;4.698;2022-09-12T05:51:44;14.40;99.90
22073;DHT22;11202;50.916;4.698;2022-09-12T05:54:13;14.30;99.90
22073;DHT22;11202;50.916;4.698;2022-09-12T05:56:43;14.40;99.90
22073;DHT22;11202;50.916;4.698;2022-09-12T05:59:14;14.90;99.90
22073;DHT22;11202;50.916;4.698;2022-09-12T06:01:44;15.20;99.90
22073;DHT22;11202;50.916;4.698;2022-09-12T06:04:10;15.30;99.90
22073;DHT22;11202;50.916;4.698;2022-09-12T06:06:43;15.30;99.90
22073;DHT22;11202;50.916;4.698;2022-09-12T06:09:14;15.30;99.90
22073;DHT22;11202;50.916;4.698;2022-09-12T06:11:42;15.30;99.90
22073;DHT22;11202;50.916;4.698;2022-09-12T06:14:10;15.30;99.90
22073;DHT22;11202;50.916;4.698;2022-09-12T06:16:38;15.30;99.90
22073;DHT22;11202;50.916;4.698;2022-09-12T06:19:06;15.30;99.90
22073;DHT22;11202;50.916;4.698;2022-09-12T06:21:35;15.50;99.90
22073;DHT22;11202;50.916;4.698;2022-09-12T06:24:02;15.80;99.90
22073;DHT22;11202;50.916;4.698;2022-09-12T06:26:31;16.30;99.90
22073;DHT22;11202;50.916;4.698;2022-09-12T06:28:58;16.80;99.90
22073;DHT22;11202;50.916;4.698;2022-09-12T06:31:33;17.50;99.90
22073;DHT22;11202;50.916;4.698;2022-09-12T06:34:03;18.80;99.90
22073;DHT22;11202;50.916;4.698;2022-09-12T06:36:32;20.70;99.90
22073;DHT22;11202;50.916;4.698;2022-09-12T06:39:04;22.00;99.90
22073;DHT22;11202;50.916;4.698;2022-09-12T06:41:31;23.40;99.90
22073;DHT22;11202;50.916;4.698;2022-09-12T06:43:57;24.60;99.90
22073;DHT22;11202;50.916;4.698;2022-09-12T06:46:24;25.00;99.90
22073;DHT22;11202;50.916;4.698;2022-09-12T06:48:54;25.60;99.90
22073;DHT22;11202;50.916;4.698;2022-09-12T06:51:23;25.60;99.90
22073;DHT22;11202;50.916;4.698;2022-09-12T06:53:49;25.60;99.90
22073;DHT22;11202;50.916;4.698;2022-09-12T06:56:20;26.10;99.90
22073;DHT22;11202;50.916;4.698;2022-09-12T06:58:48;27.00;99.90
22073;DHT22;11202;50.916;4.698;2022-09-12T07:01:16;28.00;99.90
22073;DHT22;11202;50.916;4.698;2022-09-12T07:03:47;28.80;99.90
22073;DHT22;11202;50.916;4.698;2022-09-12T07:06:14;29.20;99.90
22073;DHT22;11202;50.916;4.698;2022-09-12T07:08:43;30.00;99.90
22073;DHT22;11202;50.916;4.698;2022-09-12T07:11:17;29.70;98.00
22073;DHT22;11202;50.916;4.698;2022-09-12T07:13:46;29.60;97.00
22073;DHT22;11202;50.916;4.698;2022-09-12T07:16:14;29.90;97.90
22073;DHT22;11202;50.916;4.698;2022-09-12T07:18:40;29.80;98.40
22073;DHT22;11202;50.916;4.698;2022-09-12T07:21:09;30.00;97.20
22073;DHT22;11202;50.916;4.698;2022-09-12T07:23:36;29.70;96.40
22073;DHT22;11202;50.916;4.698;2022-09-12T07:26:09;30.00;96.00
22073;DHT22;11202;50.916;4.698;2022-09-12T07:28:38;30.60;96.90
22073;DHT22;11202;50.916;4.698;2022-09-12T07:31:09;30.40;95.80
22073;DHT22;11202;50.916;4.698;2022-09-12T07:33:38;30.50;95.30
22073;DHT22;11202;50.916;4.698;2022-09-12T07:36:15;30.00;95.00
22073;DHT22;11202;50.916;4.698;2022-09-12T07:38:41;29.60;96.50
22073;DHT22;11202;50.916;4.698;2022-09-12T07:41:12;28.90;96.10
22073;DHT22;11202;50.916;4.698;2022-09-12T07:43:38;28.40;97.40
22073;DHT22;11202;50.916;4.698;2022-09-12T07:46:04;27.90;98.30
22073;DHT22;11202;50.916;4.698;2022-09-12T07:48:30;28.50;98.80
22073;DHT22;11202;50.916;4.698;2022-09-12T07:51:00;29.20;97.90
22073;DHT22;11202;50.916;4.698;2022-09-12T07:53:31;29.20;96.80
22073;DHT22;11202;50.916;4.698;2022-09-12T07:55:58;29.40;97.20
22073;DHT22;11202;50.916;4.698;2022-09-12T07:58:28;30.20;95.90
22073;DHT22;11202;50.916;4.698;2022-09-12T08:03:28;32.80;93.40
22073;DHT22;11202;50.916;4.698;2022-09-12T08:09:16;32.30;91.00
22073;DHT22;11202;50.916;4.698;2022-09-12T08:11:42;33.00;90.20
22073;DHT22;11202;50.916;4.698;2022-09-12T08:14:08;33.70;90.00
22073;DHT22;11202;50.916;4.698;2022-09-12T08:16:34;34.50;87.80
22073;DHT22;11202;50.916;4.698;2022-09-12T08:19:01;34.80;82.90
22073;DHT22;11202;50.916;4.698;2022-09-12T08:21:29;34.50;79.50
22073;DHT22;11202;50.916;4.698;2022-09-12T08:24:00;32.80;82.60
22073;DHT22;11202;50.916;4.698;2022-09-12T08:26:27;31.80;86.00
22073;DHT22;11202;50.916;4.698;2022-09-12T08:28:53;31.20;87.00
22073;DHT22;11202;50.916;4.698;2022-09-12T08:31:22;31.10;87.00
22073;DHT22;11202;50.916;4.698;2022-09-12T08:33:48;31.40;88.40
22073;DHT22;11202;50.916;4.698;2022-09-12T08:36:19;30.70;88.90
22073;DHT22;11202;50.916;4.698;2022-09-12T08:38:48;30.60;90.00
22073;DHT22;11202;50.916;4.698;2022-09-12T08:41:20;31.10;90.70
22073;DHT22;11202;50.916;4.698;2022-09-12T08:44:25;31.40;88.90
22073;DHT22;11202;50.916;4.698;2022-09-12T08:49:52;32.20;87.10
22073;DHT22;11202;50.916;4.698;2022-09-12T08:55:05;30.90;90.00
22073;DHT22;11202;50.916;4.698;2022-09-12T08:57:38;30.30;91.10
22073;DHT22;11202;50.916;4.698;2022-09-12T09:00:10;30.00;91.40
22073;DHT22;11202;50.916;4.698;2022-09-12T09:15:25;28.30;91.60
22073;DHT22;11202;50.916;4.698;2022-09-12T09:18:20;28.40;91.30
22073;DHT22;11202;50.916;4.698;2022-09-12T09:20:55;28.80;91.80
22073;DHT22;11202;50.916;4.698;2022-09-12T09:23:32;30.00;90.60
22073;DHT22;11202;50.916;4.698;2022-09-12T09:28:52;30.80;87.50
22073;DHT22;11202;50.916;4.698;2022-09-12T09:31:24;30.20;89.10
22073;DHT22;11202;50.916;4.698;2022-09-12T09:33:54;30.40;88.90
22073;DHT22;11202;50.916;4.698;2022-09-12T09:36:27;30.10;89.00
22073;DHT22;11202;50.916;4.698;2022-09-12T09:39:04;29.90;89.20
22073;DHT22;11202;50.916;4.698;2022-09-12T09:44:28;31.10;87.90
22073;DHT22;11202;50.916;4.698;2022-09-12T09:46:57;30.70;84.70
22073;DHT22;11202;50.916;4.698;2022-09-12T09:49:25;31.40;83.40
22073;DHT22;11202;50.916;4.698;2022-09-12T09:51:52;32.80;83.20
22073;DHT22;11202;50.916;4.698;2022-09-12T09:54:25;33.30;76.20
22073;DHT22;11202;50.916;4.698;2022-09-12T09:56:52;32.30;77.60
22073;DHT22;11202;50.916;4.698;2022-09-12T09:59:27;32.60;79.60
22073;DHT22;11202;50.916;4.698;2022-09-12T10:01:53;33.40;76.70
22073;DHT22;11202;50.916;4.698;2022-09-12T10:04:26;33.00;73.90
22073;DHT22;11202;50.916;4.698;2022-09-12T10:06:59;33.50;74.50
22073;DHT22;11202;50.916;4.698;2022-09-12T10:09:30;35.30;73.40
22073;DHT22;11202;50.916;4.698;2022-09-12T10:11:58;35.30;71.40
22073;DHT22;11202;50.916;4.698;2022-09-12T10:14:34;34.60;70.90
22073;DHT22;11202;50.916;4.698;2022-09-12T10:17:04;35.40;70.20
22073;DHT22;11202;50.916;4.698;2022-09-12T10:19:46;35.50;67.50
22073;DHT22;11202;50.916;4.698;2022-09-12T10:22:18;34.00;69.40
22073;DHT22;11202;50.916;4.698;2022-09-12T10:24:59;33.30;70.90
22073;DHT22;11202;50.916;4.698;2022-09-12T10:27:34;32.70;72.40
22073;DHT22;11202;50.916;4.698;2022-09-12T10:30:15;31.80;73.60
22073;DHT22;11202;50.916;4.698;2022-09-12T10:32:45;32.30;73.30
22073;DHT22;11202;50.916;4.698;2022-09-12T10:37:54;33.10;72.30
22073;DHT22;11202;50.916;4.698;2022-09-12T10:40:31;33.60;70.90
22073;DHT22;11202;50.916;4.698;2022-09-12T10:43:01;34.70;70.70
22073;DHT22;11202;50.916;4.698;2022-09-12T10:45:35;34.40;68.50
22073;DHT22;11202;50.916;4.698;2022-09-12T10:48:31;33.30;67.20
22073;DHT22;11202;50.916;4.698;2022-09-12T10:51:03;31.70;70.80
22073;DHT22;11202;50.916;4.698;2022-09-12T10:53:40;31.70;70.90
22073;DHT22;11202;50.916;4.698;2022-09-12T10:56:12;31.60;72.10
22073;DHT22;11202;50.916;4.698;2022-09-12T10:58:45;31.10;72.90
22073;DHT22;11202;50.916;4.698;2022-09-12T11:01:39;30.60;74.80
22073;DHT22;11202;50.916;4.698;2022-09-12T11:24:01;28.50;78.90
22073;DHT22;11202;50.916;4.698;2022-09-12T11:27:06;28.10;80.40
22073;DHT22;11202;50.916;4.698;2022-09-12T11:29:53;28.10;81.50
22073;DHT22;11202;50.916;4.698;2022-09-12T11:43:45;28.20;83.20
22073;DHT22;11202;50.916;4.698;2022-09-12T11:46:26;27.90;81.70
22073;DHT22;11202;50.916;4.698;2022-09-12T11:48:58;27.70;82.20
22073;DHT22;11202;50.916;4.698;2022-09-12T11:51:36;27.70;82.60
22073;DHT22;11202;50.916;4.698;2022-09-12T11:54:14;27.70;82.70
22073;DHT22;11202;50.916;4.698;2022-09-12T11:56:45;27.50;82.70
22073;DHT22;11202;50.916;4.698;2022-09-12T11:59:27;27.30;81.50
22073;DHT22;11202;50.916;4.698;2022-09-12T12:02:00;26.90;80.80
22073;DHT22;11202;50.916;4.698;2022-09-12T12:04:43;27.00;85.10
22073;DHT22;11202;50.916;4.698;2022-09-12T12:07:11;27.30;83.20
22073;DHT22;11202;50.916;4.698;2022-09-12T12:09:48;27.40;85.10
22073;DHT22;11202;50.916;4.698;2022-09-12T12:12:21;27.40;83.60
22073;DHT22;11202;50.916;4.698;2022-09-12T12:14:49;27.50;82.50
22073;DHT22;11202;50.916;4.698;2022-09-12T12:17:19;27.60;83.00
22073;DHT22;11202;50.916;4.698;2022-09-12T12:19:46;27.60;77.70
22073;DHT22;11202;50.916;4.698;2022-09-12T12:22:21;27.50;79.20
22073;DHT22;11202;50.916;4.698;2022-09-12T12:25:07;27.40;81.40
22073;DHT22;11202;50.916;4.698;2022-09-12T12:27:52;27.40;82.40
22073;DHT22;11202;50.916;4.698;2022-09-12T12:43:53;26.50;83.90
22073;DHT22;11202;50.916;4.698;2022-09-12T12:46:27;26.40;84.20
22073;DHT22;11202;50.916;4.698;2022-09-12T12:52:13;26.70;82.30
22073;DHT22;11202;50.916;4.698;2022-09-12T12:57:21;27.10;81.60
22073;DHT22;11202;50.916;4.698;2022-09-12T13:00:24;27.60;85.60
22073;DHT22;11202;50.916;4.698;2022-09-12T13:05:56;28.20;80.30
22073;DHT22;11202;50.916;4.698;2022-09-12T13:08:31;28.60;79.80
22073;DHT22;11202;50.916;4.698;2022-09-12T13:11:13;28.70;80.60
22073;DHT22;11202;50.916;4.698;2022-09-12T13:13:55;28.30;83.20
22073;DHT22;11202;50.916;4.698;2022-09-12T13:16:37;28.70;82.30
22073;DHT22;11202;50.916;4.698;2022-09-12T13:19:14;28.70;82.00
22073;DHT22;11202;50.916;4.698;2022-09-12T13:22:10;28.80;79.80
22073;DHT22;11202;50.916;4.698;2022-09-12T13:24:46;29.00;79.60
22073;DHT22;11202;50.916;4.698;2022-09-12T13:27:35;28.90;80.40
22073;DHT22;11202;50.916;4.698;2022-09-12T13:30:10;29.10;81.20
22073;DHT22;11202;50.916;4.698;2022-09-12T13:32:38;29.10;76.70
22073;DHT22;11202;50.916;4.698;2022-09-12T13:35:17;28.80;78.50
22073;DHT22;11202;50.916;4.698;2022-09-12T13:43:30;27.80;79.10
22073;DHT22;11202;50.916;4.698;2022-09-12T13:46:01;27.10;80.80
22073;DHT22;11202;50.916;4.698;2022-09-12T13:48:27;27.40;80.00
22073;DHT22;11202;50.916;4.698;2022-09-12T13:50:56;27.70;81.10
22073;DHT22;11202;50.916;4.698;2022-09-12T13:53:25;27.30;81.00
22073;DHT22;11202;50.916;4.698;2022-09-12T13:55:58;27.40;80.30
22073;DHT22;11202;50.916;4.698;2022-09-12T13:58:29;27.30;82.80
22073;DHT22;11202;50.916;4.698;2022-09-12T14:01:09;27.30;81.20
22073;DHT22;11202;50.916;4.698;2022-09-12T14:03:55;27.70;81.20
22073;DHT22;11202;50.916;4.698;2022-09-12T14:06:46;28.20;80.50
22073;DHT22;11202;50.916;4.698;2022-09-12T14:09:18;28.20;78.70
22073;DHT22;11202;50.916;4.698;2022-09-12T14:11:46;27.70;80.00
22073;DHT22;11202;50.916;4.698;2022-09-12T14:14:31;27.10;81.60
22073;DHT22;11202;50.916;4.698;2022-09-12T14:16:58;27.10;83.30
22073;DHT22;11202;50.916;4.698;2022-09-12T14:19:24;27.50;82.80
22073;DHT22;11202;50.916;4.698;2022-09-12T14:21:57;28.10;81.90
22073;DHT22;11202;50.916;4.698;2022-09-12T14:24:25;28.60;82.00
22073;DHT22;11202;50.916;4.698;2022-09-12T14:26:55;29.00;78.50
22073;DHT22;11202;50.916;4.698;2022-09-12T14:29:21;29.20;79.00
22073;DHT22;11202;50.916;4.698;2022-09-12T14:32:00;29.10;78.30
22073;DHT22;11202;50.916;4.698;2022-09-12T14:34:27;28.70;78.50
22073;DHT22;11202;50.916;4.698;2022-09-12T14:36:53;28.70;78.90
22073;DHT22;11202;50.916;4.698;2022-09-12T14:39:36;28.80;79.20
22073;DHT22;11202;50.916;4.698;2022-09-12T14:42:20;29.20;79.50
22073;DHT22;11202;50.916;4.698;2022-09-12T14:44:59;29.50;78.10
22073;DHT22;11202;50.916;4.698;2022-09-12T14:47:31;29.70;76.90
22073;DHT22;11202;50.916;4.698;2022-09-12T14:49:58;29.50;76.30
22073;DHT22;11202;50.916;4.698;2022-09-12T14:52:36;29.30;77.30
22073;DHT22;11202;50.916;4.698;2022-09-12T14:55:27;29.30;78.00
22073;DHT22;11202;50.916;4.698;2022-09-12T14:58:14;29.30;79.80
22073;DHT22;11202;50.916;4.698;2022-09-12T15:03:57;29.50;79.70
22073;DHT22;11202;50.916;4.698;2022-09-12T15:06:30;29.50;80.20
22073;DHT22;11202;50.916;4.698;2022-09-12T15:09:04;29.00;77.70
22073;DHT22;11202;50.916;4.698;2022-09-12T15:11:31;28.90;77.40
22073;DHT22;11202;50.916;4.698;2022-09-12T15:14:05;29.00;78.40
22073;DHT22;11202;50.916;4.698;2022-09-12T15:16:30;29.20;77.50
22073;DHT22;11202;50.916;4.698;2022-09-12T15:18:56;28.90;77.30
22073;DHT22;11202;50.916;4.698;2022-09-12T15:21:24;28.30;79.20
22073;DHT22;11202;50.916;4.698;2022-09-12T15:23:51;28.10;80.30
22073;DHT22;11202;50.916;4.698;2022-09-12T15:26:20;28.00;78.40
22073;DHT22;11202;50.916;4.698;2022-09-12T15:28:49;28.00;78.70
22073;DHT22;11202;50.916;4.698;2022-09-12T15:33:46;28.70;79.40
22073;DHT22;11202;50.916;4.698;2022-09-12T15:36:15;28.90;79.60
22073;DHT22;11202;50.916;4.698;2022-09-12T15:38:42;28.90;79.20
22073;DHT22;11202;50.916;4.698;2022-09-12T15:41:13;29.10;78.40
22073;DHT22;11202;50.916;4.698;2022-09-12T15:43:40;29.40;79.30
22073;DHT22;11202;50.916;4.698;2022-09-12T15:46:09;29.80;77.60
22073;DHT22;11202;50.916;4.698;2022-09-12T15:48:36;29.70;76.10
22073;DHT22;11202;50.916;4.698;2022-09-12T15:51:02;29.90;78.10
22073;DHT22;11202;50.916;4.698;2022-09-12T15:53:29;29.90;76.80
22073;DHT22;11202;50.916;4.698;2022-09-12T15:55:55;29.90;74.60
22073;DHT22;11202;50.916;4.698;2022-09-12T15:58:22;29.70;75.60
22073;DHT22;11202;50.916;4.698;2022-09-12T16:00:48;29.70;76.20
22073;DHT22;11202;50.916;4.698;2022-09-12T16:03:23;29.30;74.50
22073;DHT22;11202;50.916;4.698;2022-09-12T16:05:57;29.00;75.40
22073;DHT22;11202;50.916;4.698;2022-09-12T16:08:23;28.70;76.70
22073;DHT22;11202;50.916;4.698;2022-09-12T16:11:00;28.50;76.60
22073;DHT22;11202;50.916;4.698;2022-09-12T16:13:29;28.10;77.30
22073;DHT22;11202;50.916;4.698;2022-09-12T16:15:56;28.00;76.10
22073;DHT22;11202;50.916;4.698;2022-09-12T16:18:23;28.00;76.60
22073;DHT22;11202;50.916;4.698;2022-09-12T16:20:55;27.80;76.50
22073;DHT22;11202;50.916;4.698;2022-09-12T16:23:24;27.60;77.20
22073;DHT22;11202;50.916;4.698;2022-09-12T16:28:23;26.90;78.90
22073;DHT22;11202;50.916;4.698;2022-09-12T16:30:56;26.70;80.50
22073;DHT22;11202;50.916;4.698;2022-09-12T16:33:24;26.70;80.50
22073;DHT22;11202;50.916;4.698;2022-09-12T16:35:50;26.50;81.20
22073;DHT22;11202;50.916;4.698;2022-09-12T16:38:20;26.50;81.80
22073;DHT22;11202;50.916;4.698;2022-09-12T16:40:46;26.50;82.70
22073;DHT22;11202;50.916;4.698;2022-09-12T16:43:12;26.50;83.40
22073;DHT22;11202;50.916;4.698;2022-09-12T16:45:40;26.50;83.20
22073;DHT22;11202;50.916;4.698;2022-09-12T16:48:08;26.40;85.00
22073;DHT22;11202;50.916;4.698;2022-09-12T16:50:34;26.30;84.50
22073;DHT22;11202;50.916;4.698;2022-09-12T16:53:03;26.10;86.20
22073;DHT22;11202;50.916;4.698;2022-09-12T16:55:32;26.30;86.90
22073;DHT22;11202;50.916;4.698;2022-09-12T16:57:58;26.30;84.70
22073;DHT22;11202;50.916;4.698;2022-09-12T17:00:27;26.10;86.50
22073;DHT22;11202;50.916;4.698;2022-09-12T17:02:52;26.00;87.30
22073;DHT22;11202;50.916;4.698;2022-09-12T17:05:18;25.90;88.30
22073;DHT22;11202;50.916;4.698;2022-09-12T17:07:47;25.80;90.50
22073;DHT22;11202;50.916;4.698;2022-09-12T17:10:15;25.80;91.50
22073;DHT22;11202;50.916;4.698;2022-09-12T17:12:43;25.90;90.00
22073;DHT22;11202;50.916;4.698;2022-09-12T17:15:09;26.10;88.80
22073;DHT22;11202;50.916;4.698;2022-09-12T17:17:35;26.10;90.10
22073;DHT22;11202;50.916;4.698;2022-09-12T17:20:00;26.00;91.00
22073;DHT22;11202;50.916;4.698;2022-09-12T17:22:28;25.90;90.90
22073;DHT22;11202;50.916;4.698;2022-09-12T17:24:57;25.90;90.70
22073;DHT22;11202;50.916;4.698;2022-09-12T17:27:23;25.80;92.30
22073;DHT22;11202;50.916;4.698;2022-09-12T17:29:48;25.60;93.20
22073;DHT22;11202;50.916;4.698;2022-09-12T17:32:17;25.60;94.10
22073;DHT22;11202;50.916;4.698;2022-09-12T17:34:43;25.50;95.70
22073;DHT22;11202;50.916;4.698;2022-09-12T17:37:09;25.30;94.50
22073;DHT22;11202;50.916;4.698;2022-09-12T17:39:39;25.20;94.90
22073;DHT22;11202;50.916;4.698;2022-09-12T17:42:06;25.20;95.90
22073;DHT22;11202;50.916;4.698;2022-09-12T17:44:33;25.00;96.50
22073;DHT22;11202;50.916;4.698;2022-09-12T17:47:00;24.50;98.70
22073;DHT22;11202;50.916;4.698;2022-09-12T17:49:26;24.10;99.90
22073;DHT22;11202;50.916;4.698;2022-09-12T17:51:57;23.70;99.90
22073;DHT22;11202;50.916;4.698;2022-09-12T17:54:23;23.50;99.90
22073;DHT22;11202;50.916;4.698;2022-09-12T17:56:49;23.20;99.90
22073;DHT22;11202;50.916;4.698;2022-09-12T17:59:20;23.00;99.90
22073;DHT22;11202;50.916;4.698;2022-09-12T18:01:47;22.90;99.90
22073;DHT22;11202;50.916;4.698;2022-09-12T18:04:31;23.00;99.90
22073;DHT22;11202;50.916;4.698;2022-09-12T18:06:57;23.00;99.90
22073;DHT22;11202;50.916;4.698;2022-09-12T18:09:25;23.00;99.90
22073;DHT22;11202;50.916;4.698;2022-09-12T18:11:51;22.80;99.90
22073;DHT22;11202;50.916;4.698;2022-09-12T18:14:17;22.60;99.90
22073;DHT22;11202;50.916;4.698;2022-09-12T18:16:44;22.50;99.90
22073;DHT22;11202;50.916;4.698;2022-09-12T18:19:10;22.40;99.90
22073;DHT22;11202;50.916;4.698;2022-09-12T18:21:36;22.10;99.90